Time;durP1;ratioP1;P1;durP2;ratioP2;P2;SDS_P1;SDS_P2;PMS_P1;PMS_P2;Temp;Humidity;BMP_temperature;BMP_pressure;BME280_temperature;BME280_humidity;BME280_pressure;Samples;Min_cycle;Max_cycle;Signal;HPM_P1;HPM_P2
2022/02/11 00:09:09;;;;;;;;;151.00;149.75;;;;;;;;5060621;28;8805;-82
2022/02/11 00:11:36;;;;;;;;;164.75;163.75;;;;;;;;5062357;28;8853;-79
2022/02/11 00:14:05;;;;;;;;;148.20;147.00;;;;;;;;5071539;28;8816;-81
2022/02/11 00:16:30;;;;;;;;;152.20;151.00;;;;;;;;5073303;28;8749;-82
2022/02/11 00:18:59;;;;;;;;;147.60;146.40;;;;;;;;5064045;28;8793;-81
2022/02/11 00:21:24;;;;;;;;;150.80;149.60;;;;;;;;5073030;28;8796;-81
2022/02/11 00:23:50;;;;;;;;;148.40;146.40;;;;;;;;5073203;28;8784;-81
2022/02/11 00:26:15;;;;;;;;;156.20;154.40;;;;;;;;5073685;28;8915;-81
2022/02/11 00:33:40;;;;;;;;;145.00;141.60;;;;;;;;5076955;28;8823;-82
2022/02/11 00:36:08;;;;;;;;;147.40;147.40;;;;;;;;5076879;28;11582;-82
2022/02/11 01:03:16;;;;;;;;;164.60;164.40;;;;;;;;5075391;28;8789;-77
2022/02/11 01:05:42;;;;;;;;;161.80;161.40;;;;;;;;5063483;28;8915;-78
2022/02/11 01:08:07;;;;;;;;;161.50;161.00;;;;;;;;5075940;28;8824;-78
2022/02/11 01:10:33;;;;;;;;;165.25;162.75;;;;;;;;5073533;28;8816;-77
2022/02/11 01:12:59;;;;;;;;;168.40;168.00;;;;;;;;5070680;28;10899;-77
2022/02/11 01:15:26;;;;;;;;;156.00;156.00;;;;;;;;5076045;28;8989;-77
2022/02/11 01:17:56;;;;;;;;;159.60;156.80;;;;;;;;5076054;28;8924;-77
2022/02/11 01:20:45;;;;;;;;;158.20;155.60;;;;;;;;5075239;28;8842;-77
2022/02/11 02:12:02;;;;;;;;;161.60;159.80;;;;;;;;5066748;28;8814;-79
2022/02/11 02:22:27;;;;;;;;;145.33;142.50;;;;;;;;5073906;28;11609;-78
2022/02/11 02:25:07;;;;;;;;;136.67;134.50;;;;;;;;5075009;28;8815;-78
2022/02/11 02:28:15;;;;;;;;;128.20;127.40;;;;;;;;5075568;28;8769;-78
2022/02/11 02:43:29;;;;;;;;;127.20;126.80;;;;;;;;5075034;28;8812;-78
2022/02/11 04:23:17;;;;;;;;;139.20;138.20;;;;;;;;5072317;28;8807;-77
2022/02/11 04:52:47;;;;;;;;;125.80;124.40;;;;;;;;5077183;28;8796;-78
2022/02/11 04:53:46;;;;;;;;;126.80;125.00;;;;;;;;5063797;28;8796;-78
2022/02/11 04:55:48;;;;;;;;;108.50;106.25;;;;;;;;5076834;28;9320;-78
2022/02/11 05:00:58;;;;;;;;;125.80;122.20;;;;;;;;5076672;28;8776;-78
2022/02/11 05:03:23;;;;;;;;;129.75;128.75;;;;;;;;5073709;28;9680;-78
2022/02/11 05:05:51;;;;;;;;;105.75;98.75;;;;;;;;5076336;28;8877;-78
2022/02/11 05:08:26;;;;;;;;;134.83;134.83;;;;;;;;5074696;28;8846;-78
2022/02/11 05:10:53;;;;;;;;;118.50;117.00;;;;;;;;5070713;28;8755;-78
2022/02/11 05:13:18;;;;;;;;;137.00;136.00;;;;;;;;5068575;28;8789;-77
2022/02/11 05:15:44;;;;;;;;;100.67;91.00;;;;;;;;5075854;28;8909;-78
2022/02/11 05:18:10;;;;;;;;;95.60;82.80;;;;;;;;5072137;28;10683;-78
2022/02/11 05:20:36;;;;;;;;;104.40;97.40;;;;;;;;5076142;28;9633;-77
2022/02/11 05:23:05;;;;;;;;;96.40;79.00;;;;;;;;5076145;28;8859;-78
2022/02/11 05:25:30;;;;;;;;;101.80;89.60;;;;;;;;5076087;28;8780;-78
2022/02/11 05:27:55;;;;;;;;;95.00;81.25;;;;;;;;5076319;28;8954;-77
2022/02/11 05:30:20;;;;;;;;;94.20;80.00;;;;;;;;5076075;28;8808;-77
2022/02/11 05:32:46;;;;;;;;;89.80;72.00;;;;;;;;5073410;28;8812;-77
2022/02/11 05:35:11;;;;;;;;;126.80;122.40;;;;;;;;5071758;28;8841;-78
2022/02/11 05:37:36;;;;;;;;;122.60;121.20;;;;;;;;5068746;28;8828;-78
2022/02/11 05:40:02;;;;;;;;;131.50;128.50;;;;;;;;5074576;28;8824;-78
2022/02/11 05:42:28;;;;;;;;;143.00;141.00;;;;;;;;5067414;28;8831;-78
2022/02/11 05:44:53;;;;;;;;;124.60;124.00;;;;;;;;5075684;28;8789;-78
2022/02/11 05:47:19;;;;;;;;;150.00;148.20;;;;;;;;5075951;28;8841;-78
2022/02/11 05:49:44;;;;;;;;;126.00;122.75;;;;;;;;5075979;28;9536;-78
2022/02/11 05:52:09;;;;;;;;;154.40;151.60;;;;;;;;5073959;28;8918;-78
2022/02/11 05:54:35;;;;;;;;;128.50;125.00;;;;;;;;5069906;28;8787;-78
2022/02/11 05:57:00;;;;;;;;;120.75;117.50;;;;;;;;5072197;28;11605;-78
2022/02/11 05:59:25;;;;;;;;;130.40;128.40;;;;;;;;5071674;28;8816;-77
2022/02/11 06:01:51;;;;;;;;;124.00;122.50;;;;;;;;5066848;28;8832;-78
2022/02/11 06:04:16;;;;;;;;;147.20;145.00;;;;;;;;5069673;28;8849;-77
2022/02/11 06:06:41;;;;;;;;;153.75;152.25;;;;;;;;5075612;28;8855;-78
2022/02/11 06:09:07;;;;;;;;;137.25;135.25;;;;;;;;5074130;28;11640;-78
2022/02/11 06:11:32;;;;;;;;;164.00;162.60;;;;;;;;5075000;28;8812;-78
2022/02/11 06:13:58;;;;;;;;;124.75;122.00;;;;;;;;5074977;28;8858;-77
2022/02/11 06:16:23;;;;;;;;;163.60;161.20;;;;;;;;5078487;28;8812;-79
2022/02/11 06:18:49;;;;;;;;;180.75;180.00;;;;;;;;5073473;28;8867;-80
2022/02/11 06:21:14;;;;;;;;;156.20;155.80;;;;;;;;5075264;28;10113;-80
2022/02/11 06:23:40;;;;;;;;;185.25;185.25;;;;;;;;5074869;28;10018;-79
2022/02/11 06:26:05;;;;;;;;;177.20;175.80;;;;;;;;5064966;28;8840;-79
2022/02/11 06:28:30;;;;;;;;;171.00;169.20;;;;;;;;5076538;28;8836;-83
2022/02/11 06:30:55;;;;;;;;;172.25;170.50;;;;;;;;5070715;28;8858;-82
2022/02/11 06:33:21;;;;;;;;;199.40;198.80;;;;;;;;5067452;28;8890;-82
2022/02/11 06:35:47;;;;;;;;;210.80;206.80;;;;;;;;5074656;28;8853;-82
2022/02/11 06:38:12;;;;;;;;;185.80;182.80;;;;;;;;5073080;28;8850;-84
2022/02/11 06:40:37;;;;;;;;;193.50;193.50;;;;;;;;5068208;28;8838;-86
2022/02/11 06:43:06;;;;;;;;;195.60;193.80;;;;;;;;5065924;28;9663;-79
2022/02/11 06:45:31;;;;;;;;;181.83;181.00;;;;;;;;5075011;28;8806;-84
2022/02/11 06:47:57;;;;;;;;;177.50;176.75;;;;;;;;5075217;28;8816;-84
2022/02/11 06:50:22;;;;;;;;;216.00;215.00;;;;;;;;5075450;28;8824;-84
2022/02/11 06:52:49;;;;;;;;;271.00;270.25;;;;;;;;5074795;28;8816;-84
2022/02/11 06:55:15;;;;;;;;;219.20;219.20;;;;;;;;5075443;28;8839;-84
2022/02/11 06:57:42;;;;;;;;;245.80;245.80;;;;;;;;5075143;28;9576;-84
2022/02/11 07:00:09;;;;;;;;;228.33;227.17;;;;;;;;5074453;28;8824;-84
2022/02/11 07:02:34;;;;;;;;;199.40;197.20;;;;;;;;5063444;28;8822;-84
2022/02/11 07:05:00;;;;;;;;;256.00;254.20;;;;;;;;5074708;28;8808;-83
2022/02/11 07:07:25;;;;;;;;;239.20;237.60;;;;;;;;5072788;28;9030;-85
2022/02/11 07:09:52;;;;;;;;;236.40;235.80;;;;;;;;5073164;28;8894;-84
2022/02/11 07:12:18;;;;;;;;;221.20;221.20;;;;;;;;5074271;28;8812;-84
2022/02/11 07:14:43;;;;;;;;;206.80;205.60;;;;;;;;5074703;28;10175;-84
2022/02/11 07:17:11;;;;;;;;;301.75;297.00;;;;;;;;5069745;28;8816;-84
2022/02/11 07:19:37;;;;;;;;;282.33;282.33;;;;;;;;5074626;28;8838;-84
2022/02/11 07:22:02;;;;;;;;;282.33;281.83;;;;;;;;5072350;28;8840;-84
2022/02/11 07:24:28;;;;;;;;;244.80;244.20;;;;;;;;5074524;28;8828;-84
2022/02/11 07:26:54;;;;;;;;;281.50;280.00;;;;;;;;5074230;28;8862;-84
2022/02/11 07:29:19;;;;;;;;;282.83;280.33;;;;;;;;5074421;28;8838;-84
2022/02/11 07:31:44;;;;;;;;;229.00;225.75;;;;;;;;5063249;28;8855;-84
2022/02/11 07:34:10;;;;;;;;;321.40;318.40;;;;;;;;5059200;28;8832;-84
2022/02/11 07:36:35;;;;;;;;;300.80;294.20;;;;;;;;5074115;28;9691;-84
2022/02/11 07:39:01;;;;;;;;;277.60;274.00;;;;;;;;5068953;28;8832;-84
2022/02/11 07:41:26;;;;;;;;;217.80;217.80;;;;;;;;5074029;28;8880;-84
2022/02/11 07:43:51;;;;;;;;;270.80;270.80;;;;;;;;5073866;28;8828;-84
2022/02/11 07:46:17;;;;;;;;;275.25;270.75;;;;;;;;5074073;28;9563;-84
2022/02/11 07:48:42;;;;;;;;;195.75;192.25;;;;;;;;5074197;28;8816;-84
2022/02/11 07:51:08;;;;;;;;;214.75;214.50;;;;;;;;5074126;28;8839;-84
2022/02/11 07:53:34;;;;;;;;;290.20;283.60;;;;;;;;5073825;28;8808;-84
2022/02/11 07:56:00;;;;;;;;;223.80;221.40;;;;;;;;5067810;28;8812;-84
2022/02/11 07:59:00;;;;;;;;;211.00;208.80;;;;;;;;5073722;28;8848;-91
2022/02/11 08:02:02;;;;;;;;;;;;;;;;;;;;;
2022/02/11 08:28:01;;;;;;;;;179.67;178.33;;;;;;;;5644895;22;10017;-85
2022/02/11 08:30:38;;;;;;;;;;;;;;;;;;;;;
2022/02/11 08:33:04;;;;;;;;;177.80;176.40;;;;;;;;5072648;28;36141;-86
2022/02/11 08:35:32;;;;;;;;;175.20;172.60;;;;;;;;5072614;28;8811;-85
2022/02/11 08:38:05;;;;;;;;;174.83;172.83;;;;;;;;5073427;28;8799;-87
2022/02/11 08:40:40;;;;;;;;;170.50;167.00;;;;;;;;5042336;28;8822;-87
2022/02/11 08:43:09;;;;;;;;;167.80;164.60;;;;;;;;5051412;28;9141;-86
2022/02/11 08:45:37;;;;;;;;;170.25;166.25;;;;;;;;5067106;28;9721;-85
2022/02/11 08:48:03;;;;;;;;;172.40;168.40;;;;;;;;5063507;28;8783;-86
2022/02/11 08:50:28;;;;;;;;;168.60;167.40;;;;;;;;5074690;28;8845;-86
2022/02/11 08:52:54;;;;;;;;;163.33;160.33;;;;;;;;5073467;28;8779;-88
2022/02/11 08:55:22;;;;;;;;;145.50;143.00;;;;;;;;5076314;28;8845;-87
2022/02/11 08:57:48;;;;;;;;;154.80;151.80;;;;;;;;5085021;28;8786;-84
2022/02/11 09:00:16;;;;;;;;;137.80;134.20;;;;;;;;5076774;28;8795;-84
2022/02/11 09:02:42;;;;;;;;;147.00;142.80;;;;;;;;5076785;28;8763;-84
2022/02/11 09:05:07;;;;;;;;;137.00;134.00;;;;;;;;5069187;28;9676;-84
2022/02/11 09:07:33;;;;;;;;;149.60;146.60;;;;;;;;5075047;28;8822;-85
2022/02/11 09:09:59;;;;;;;;;147.00;144.40;;;;;;;;5076518;28;8813;-84
2022/02/11 09:12:25;;;;;;;;;148.00;142.40;;;;;;;;5071984;28;8939;-85
2022/02/11 09:14:51;;;;;;;;;158.50;153.75;;;;;;;;5076716;28;9995;-85
2022/02/11 09:17:21;;;;;;;;;147.50;145.00;;;;;;;;5055877;28;8821;-85
2022/02/11 09:19:50;;;;;;;;;161.00;157.00;;;;;;;;5076452;28;8791;-85
2022/02/11 09:22:16;;;;;;;;;162.80;159.40;;;;;;;;5063197;28;8809;-85
2022/02/11 09:24:41;;;;;;;;;157.00;156.50;;;;;;;;5076479;28;8837;-84
2022/02/11 09:27:07;;;;;;;;;155.75;155.00;;;;;;;;5076259;28;8806;-85
2022/02/11 09:29:32;;;;;;;;;151.50;150.25;;;;;;;;5083381;28;8836;-85
2022/02/11 09:31:58;;;;;;;;;138.80;135.00;;;;;;;;5076449;28;8849;-84
2022/02/11 09:34:23;;;;;;;;;147.00;146.50;;;;;;;;5057964;28;8799;-85
2022/02/11 09:36:49;;;;;;;;;127.25;124.25;;;;;;;;5076098;28;8947;-85
2022/02/11 09:39:15;;;;;;;;;135.40;134.20;;;;;;;;5075876;28;8952;-84
2022/02/11 09:41:41;;;;;;;;;123.80;121.20;;;;;;;;5076013;28;8845;-84
2022/02/11 09:44:07;;;;;;;;;125.25;125.00;;;;;;;;5070980;28;8832;-85
2022/02/11 09:46:33;;;;;;;;;123.50;122.50;;;;;;;;5075151;28;8790;-84
2022/02/11 09:48:59;;;;;;;;;123.33;122.67;;;;;;;;5073906;28;8783;-85
2022/02/11 09:51:24;;;;;;;;;115.50;112.00;;;;;;;;5072538;28;11297;-85
2022/02/11 09:53:51;;;;;;;;;124.50;122.50;;;;;;;;5070150;28;8783;-86
2022/02/11 09:56:25;;;;;;;;;118.20;116.60;;;;;;;;5057717;28;8786;-87
2022/02/11 09:58:51;;;;;;;;;114.25;113.50;;;;;;;;5063990;28;8777;-86
2022/02/11 10:01:21;;;;;;;;;126.40;124.20;;;;;;;;5062445;28;10525;-84
2022/02/11 10:04:06;;;;;;;;;120.40;118.00;;;;;;;;5066683;28;8848;-86
2022/02/11 10:06:31;;;;;;;;;118.25;116.25;;;;;;;;5063183;28;8782;-85
2022/02/11 10:08:57;;;;;;;;;122.50;121.50;;;;;;;;5076574;28;8825;-84
2022/02/11 10:11:22;;;;;;;;;121.00;120.00;;;;;;;;5075680;28;8892;-84
2022/02/11 10:13:47;;;;;;;;;122.00;119.50;;;;;;;;5061033;28;8832;-83
2022/02/11 10:16:13;;;;;;;;;120.50;119.75;;;;;;;;5095343;28;8818;-83
2022/02/11 10:18:40;;;;;;;;;116.67;116.33;;;;;;;;5072401;28;8802;-84
2022/02/11 10:21:07;;;;;;;;;115.20;114.80;;;;;;;;5054251;28;8815;-84
2022/02/11 10:23:37;;;;;;;;;123.00;121.50;;;;;;;;5066471;28;8882;-85
2022/02/11 10:26:07;;;;;;;;;122.40;118.40;;;;;;;;5068650;28;8779;-85
2022/02/11 10:28:49;;;;;;;;;121.00;121.00;;;;;;;;5072559;28;8901;-84
2022/02/11 10:31:16;;;;;;;;;109.75;108.00;;;;;;;;5047268;28;8811;-84
2022/02/11 10:34:00;;;;;;;;;93.50;84.25;;;;;;;;5072292;28;8874;-85
2022/02/11 10:36:30;;;;;;;;;94.75;84.00;;;;;;;;5073740;28;8799;-85
2022/02/11 10:39:10;;;;;;;;;94.25;84.25;;;;;;;;5075493;28;8794;-84
2022/02/11 10:41:40;;;;;;;;;83.40;67.40;;;;;;;;5055324;28;8883;-84
2022/02/11 10:44:13;;;;;;;;;87.00;73.33;;;;;;;;5052059;28;8830;-87
2022/02/11 10:46:42;;;;;;;;;90.20;78.00;;;;;;;;5052841;28;11482;-87
2022/02/11 10:49:13;;;;;;;;;85.20;68.40;;;;;;;;5074355;28;8787;-86
2022/02/11 10:52:04;;;;;;;;;97.25;88.75;;;;;;;;5064669;28;8795;-86
2022/02/11 10:54:49;;;;;;;;;96.80;88.20;;;;;;;;5046586;28;8790;-86
2022/02/11 10:57:15;;;;;;;;;72.75;59.50;;;;;;;;5071844;28;8893;-87
2022/02/11 10:59:44;;;;;;;;;87.25;72.50;;;;;;;;5071863;28;8801;-87
2022/02/11 11:02:40;;;;;;;;;99.80;92.40;;;;;;;;5050540;28;8807;-87
2022/02/11 11:05:09;;;;;;;;;136.33;134.00;;;;;;;;5074560;28;8823;-87
2022/02/11 11:07:37;;;;;;;;;82.25;67.75;;;;;;;;5074478;28;8807;-87
2022/02/11 11:10:08;;;;;;;;;100.60;96.60;;;;;;;;5074547;28;11398;-88
2022/02/11 11:12:38;;;;;;;;;116.60;112.80;;;;;;;;5073931;28;8790;-88
2022/02/11 11:15:04;;;;;;;;;81.00;66.50;;;;;;;;5056792;28;12480;-88
2022/02/11 11:17:30;;;;;;;;;81.00;65.40;;;;;;;;5050137;28;9681;-86
2022/02/11 11:20:16;;;;;;;;;;;;;;;;;;;;;
2022/02/11 11:22:45;;;;;;;;;80.75;66.50;;;;;;;;5060750;28;36789;-86
2022/02/11 11:25:10;;;;;;;;;88.80;75.20;;;;;;;;5056466;28;8794;-86
2022/02/11 11:27:45;;;;;;;;;85.00;71.50;;;;;;;;5074752;28;8799;-87
2022/02/11 11:33:48;;;;;;;;;107.75;105.50;;;;;;;;5030099;28;8786;-90
2022/02/11 11:39:46;;;;;;;;;;;;;;;;;;;;;
2022/02/11 11:45:33;;;;;;;;;95.20;89.20;;;;;;;;5017839;28;8803;-88
2022/02/11 11:51:15;;;;;;;;;270.00;268.00;;;;;;;;5021981;28;8820;-88
2022/02/11 11:54:14;;;;;;;;;;;;;;;;;;;;;
2022/02/11 11:59:58;;;;;;;;;112.75;109.50;;;;;;;;5001858;28;8809;-87
2022/02/11 12:12:32;;;;;;;;;111.40;110.40;;;;;;;;5064017;27;9704;-88
2022/02/11 12:15:04;;;;;;;;;94.40;89.40;;;;;;;;5031484;28;8785;-90
2022/02/11 12:17:30;;;;;;;;;61.50;50.00;;;;;;;;5071097;28;8902;-85
2022/02/11 12:19:56;;;;;;;;;79.75;67.75;;;;;;;;5068021;28;8803;-80
2022/02/11 12:22:24;;;;;;;;;161.67;161.67;;;;;;;;5062496;28;8849;-79
2022/02/11 12:30:32;;;;;;;;;12.25;10.75;;;;;;;;5058940;28;10639;-88
2022/02/11 12:33:11;;;;;;;;;;;;;;;;;;;;;
2022/02/11 13:19:36;;;;;;;;;40.00;38.50;;;;;;;;4888733;29;8819;-87
2022/02/11 13:22:07;;;;;;;;;18.25;18.00;;;;;;;;4889939;29;8842;-87
2022/02/11 13:31:12;;;;;;;;;74.80;61.40;;;;;;;;4874772;29;8814;-87
2022/02/11 13:34:04;;;;;;;;;62.50;53.00;;;;;;;;4902374;29;8814;-87
2022/02/11 13:40:07;;;;;;;;;86.80;77.40;;;;;;;;4989976;28;8783;-87
2022/02/11 13:42:35;;;;;;;;;84.80;72.20;;;;;;;;5026947;28;8796;-89
2022/02/11 13:45:24;;;;;;;;;94.40;89.60;;;;;;;;5057824;28;8919;-91
2022/02/11 13:48:06;;;;;;;;;92.20;88.80;;;;;;;;5066746;28;8841;-85
2022/02/11 14:10:36;;;;;;;;;95.60;91.80;;;;;;;;4843045;29;8876;-90
2022/02/11 14:13:12;;;;;;;;;89.75;83.00;;;;;;;;4867364;29;8880;-90
2022/02/11 14:15:41;;;;;;;;;85.00;75.25;;;;;;;;4994917;28;8908;-90
2022/02/11 14:18:16;;;;;;;;;102.80;100.20;;;;;;;;5004836;28;8908;-90
2022/02/11 14:21:32;;;;;;;;;;;;;;;;;;;;;
2022/02/11 14:23:52;;;;;;;;;133.00;132.75;;;;;;;;5002083;28;8883;-90
2022/02/11 14:26:51;;;;;;;;;;;;;;;;;;;;;
2022/02/11 14:29:37;;;;;;;;;;;;;;;;;;;;;
2022/02/11 14:32:13;;;;;;;;;146.67;146.17;;;;;;;;5012372;28;35836;-91
2022/02/11 15:06:43;;;;;;;;;;;;;;;;;;;;;
2022/02/11 15:09:45;;;;;;;;;;;;;;;;;;;;;
2022/02/11 15:15:08;;;;;;;;;70.25;58.75;;;;;;;;4840016;29;8916;-90
2022/02/11 15:17:36;;;;;;;;;90.33;82.67;;;;;;;;4940566;28;8836;-90
2022/02/11 15:20:02;;;;;;;;;111.60;110.80;;;;;;;;4973101;28;10867;-90
2022/02/11 15:22:30;;;;;;;;;111.60;111.00;;;;;;;;4992771;28;8760;-89
2022/02/11 15:24:57;;;;;;;;;118.60;116.00;;;;;;;;4966034;28;8923;-89
2022/02/11 15:27:23;;;;;;;;;75.00;61.25;;;;;;;;5052756;28;8787;-89
2022/02/11 15:29:58;;;;;;;;;126.40;124.80;;;;;;;;5065185;28;8822;-88
2022/02/11 15:32:32;;;;;;;;;105.60;104.80;;;;;;;;5056173;28;8747;-88
2022/02/11 15:35:00;;;;;;;;;54.60;46.00;;;;;;;;5056250;28;8774;-89
2022/02/11 15:37:26;;;;;;;;;80.00;65.80;;;;;;;;5073956;28;8794;-89
2022/02/11 15:39:51;;;;;;;;;72.75;59.25;;;;;;;;5072324;28;8831;-89
2022/02/11 15:42:17;;;;;;;;;80.67;68.33;;;;;;;;5074616;28;8855;-89
2022/02/11 15:44:44;;;;;;;;;79.75;66.50;;;;;;;;5065899;28;11482;-89
2022/02/11 15:47:10;;;;;;;;;79.25;65.75;;;;;;;;5063542;28;8787;-89
2022/02/11 15:49:35;;;;;;;;;90.25;81.50;;;;;;;;5074660;28;8810;-89
2022/02/11 15:52:00;;;;;;;;;89.00;80.75;;;;;;;;5055967;28;8829;-88
2022/02/11 15:54:28;;;;;;;;;79.25;65.50;;;;;;;;5086439;28;8973;-86
2022/02/11 15:56:54;;;;;;;;;80.80;66.80;;;;;;;;5066710;28;8774;-87
2022/02/11 15:59:19;;;;;;;;;61.25;52.25;;;;;;;;5065782;28;8835;-89
2022/02/11 16:01:44;;;;;;;;;58.25;50.00;;;;;;;;5072461;28;8865;-92
2022/02/11 16:04:10;;;;;;;;;22.25;18.25;;;;;;;;5057113;28;8844;-87
2022/02/11 16:06:38;;;;;;;;;24.25;24.25;;;;;;;;5056352;28;8818;-86
2022/02/11 16:09:14;;;;;;;;;14.50;13.00;;;;;;;;5056412;28;8802;-86
2022/02/11 16:12:16;;;;;;;;;58.00;49.67;;;;;;;;5051952;28;8810;-87
2022/02/11 16:14:41;;;;;;;;;61.80;51.40;;;;;;;;5054662;28;12367;-87
2022/02/11 16:17:09;;;;;;;;;64.67;55.00;;;;;;;;5068100;28;8896;-86
2022/02/11 16:19:37;;;;;;;;;56.75;48.75;;;;;;;;5074432;28;8979;-86
2022/02/11 16:22:12;;;;;;;;;77.33;64.00;;;;;;;;5067081;28;11622;-86
2022/02/11 16:24:37;;;;;;;;;75.25;62.00;;;;;;;;5074391;28;9666;-88
2022/02/11 16:27:03;;;;;;;;;90.00;81.00;;;;;;;;5074060;28;8783;-87
2022/02/11 16:29:33;;;;;;;;;77.25;64.00;;;;;;;;5074196;28;8798;-86
2022/02/11 16:32:05;;;;;;;;;134.50;134.17;;;;;;;;5073748;28;8779;-86
2022/02/11 16:34:40;;;;;;;;;83.50;70.25;;;;;;;;5074029;28;8783;-86
2022/02/11 16:37:08;;;;;;;;;84.50;71.50;;;;;;;;5055560;28;11547;-87
2022/02/11 16:39:33;;;;;;;;;89.25;78.25;;;;;;;;5074433;28;8771;-87
2022/02/11 16:41:58;;;;;;;;;80.75;65.75;;;;;;;;5073708;28;11540;-86
2022/02/11 16:44:24;;;;;;;;;81.75;67.25;;;;;;;;5073854;28;8845;-85
2022/02/11 16:46:49;;;;;;;;;91.33;81.00;;;;;;;;5063996;28;11604;-86
2022/02/11 16:49:18;;;;;;;;;82.25;66.75;;;;;;;;5074093;28;8811;-85
2022/02/11 16:51:44;;;;;;;;;75.40;62.60;;;;;;;;5072993;28;8856;-85
2022/02/11 16:54:12;;;;;;;;;80.25;66.50;;;;;;;;5073891;28;8815;-88
2022/02/11 16:56:38;;;;;;;;;79.40;65.40;;;;;;;;5072561;28;9550;-84
2022/02/11 16:59:03;;;;;;;;;95.25;86.75;;;;;;;;5068130;28;8814;-89
2022/02/11 17:01:29;;;;;;;;;79.25;64.50;;;;;;;;5073465;28;8896;-87
2022/02/11 17:03:54;;;;;;;;;84.67;69.67;;;;;;;;5074125;28;8826;-87
2022/02/11 17:06:20;;;;;;;;;80.25;66.50;;;;;;;;5073361;28;8885;-82
2022/02/11 17:08:46;;;;;;;;;80.00;64.20;;;;;;;;5055157;28;11509;-86
2022/02/11 17:11:14;;;;;;;;;74.25;62.25;;;;;;;;5054405;28;8807;-86
2022/02/11 17:13:40;;;;;;;;;87.00;70.40;;;;;;;;5077026;28;8763;-83
2022/02/11 17:16:32;;;;;;;;;77.25;63.25;;;;;;;;5076614;28;9577;-82
2022/02/11 17:18:57;;;;;;;;;82.75;68.00;;;;;;;;5073809;28;8782;-81
2022/02/11 17:21:23;;;;;;;;;65.00;54.75;;;;;;;;5076401;28;8842;-83
2022/02/11 17:23:50;;;;;;;;;73.33;60.33;;;;;;;;5057480;28;8834;-88
2022/02/11 17:26:15;;;;;;;;;83.00;67.25;;;;;;;;5069994;28;8784;-84
2022/02/11 17:28:41;;;;;;;;;81.67;66.67;;;;;;;;5073570;28;8829;-88
2022/02/11 17:31:09;;;;;;;;;74.50;61.50;;;;;;;;5058627;28;8806;-84
2022/02/11 17:33:37;;;;;;;;;74.00;61.50;;;;;;;;5056189;28;8837;-83
2022/02/11 17:36:02;;;;;;;;;76.00;62.40;;;;;;;;5068453;28;9084;-81
2022/02/11 17:38:33;;;;;;;;;78.50;65.00;;;;;;;;5068666;28;9547;-86
2022/02/11 17:40:59;;;;;;;;;79.60;64.40;;;;;;;;5071002;28;8802;-84
2022/02/11 17:43:25;;;;;;;;;74.75;61.50;;;;;;;;5054233;28;8805;-82
2022/02/11 17:45:51;;;;;;;;;85.75;67.75;;;;;;;;5074795;28;8850;-84
2022/02/11 17:48:25;;;;;;;;;76.00;63.50;;;;;;;;5082130;28;8787;-84
2022/02/11 17:50:58;;;;;;;;;74.75;62.00;;;;;;;;5076368;28;8892;-83
2022/02/11 17:53:26;;;;;;;;;84.40;68.80;;;;;;;;5074985;28;8818;-83
2022/02/11 17:55:51;;;;;;;;;78.80;62.80;;;;;;;;5049981;28;8741;-83
2022/02/11 17:58:16;;;;;;;;;77.75;65.50;;;;;;;;5062377;28;9612;-85
2022/02/11 18:00:42;;;;;;;;;88.75;73.25;;;;;;;;5076227;28;8830;-84
2022/02/11 18:03:07;;;;;;;;;81.00;67.00;;;;;;;;5057891;28;8853;-84
2022/02/11 18:05:33;;;;;;;;;47.33;42.00;;;;;;;;5076128;28;8794;-84
2022/02/11 18:07:58;;;;;;;;;73.00;59.50;;;;;;;;5076083;28;9562;-84
2022/02/11 18:10:24;;;;;;;;;82.75;67.25;;;;;;;;5076247;28;8795;-84
2022/02/11 18:12:50;;;;;;;;;89.50;70.50;;;;;;;;5057720;28;8826;-84
2022/02/11 18:15:15;;;;;;;;;92.25;79.50;;;;;;;;5068086;28;12306;-83
2022/02/11 18:17:43;;;;;;;;;84.33;68.67;;;;;;;;5062076;28;8933;-80
2022/02/11 18:20:09;;;;;;;;;82.25;67.00;;;;;;;;5068228;28;9003;-79
2022/02/11 18:22:35;;;;;;;;;82.00;66.75;;;;;;;;5073631;28;11526;-79
2022/02/11 18:25:01;;;;;;;;;77.00;64.33;;;;;;;;5075385;28;8779;-78
2022/02/11 18:27:29;;;;;;;;;81.33;66.33;;;;;;;;5073990;28;11254;-79
2022/02/11 18:29:55;;;;;;;;;73.00;59.60;;;;;;;;5069743;28;8776;-80
2022/02/11 18:32:21;;;;;;;;;83.33;66.33;;;;;;;;5048988;28;8834;-79
2022/02/11 18:34:46;;;;;;;;;89.25;69.75;;;;;;;;5065872;28;8783;-77
2022/02/11 18:37:12;;;;;;;;;82.00;67.50;;;;;;;;5071094;28;11488;-77
2022/02/11 18:39:37;;;;;;;;;87.20;70.00;;;;;;;;5072653;28;8798;-78
2022/02/11 18:42:03;;;;;;;;;93.00;79.00;;;;;;;;5067283;28;8806;-78
2022/02/11 18:44:28;;;;;;;;;89.25;69.25;;;;;;;;5069390;28;8801;-76
2022/02/11 18:46:54;;;;;;;;;85.33;69.00;;;;;;;;5071589;28;11523;-77
2022/02/11 18:49:19;;;;;;;;;90.25;75.75;;;;;;;;5066860;28;9025;-78
2022/02/11 18:51:46;;;;;;;;;95.33;81.00;;;;;;;;5062919;28;8806;-78
2022/02/11 18:54:12;;;;;;;;;99.50;90.25;;;;;;;;5072139;28;9677;-78
2022/02/11 18:56:38;;;;;;;;;99.00;88.00;;;;;;;;5073566;28;8821;-78
2022/02/11 19:01:47;;;;;;;;;103.00;91.00;;;;;;;;5074230;28;8755;-78
2022/02/11 19:04:13;;;;;;;;;105.75;97.75;;;;;;;;5062959;28;9536;-78
2022/02/11 19:06:39;;;;;;;;;117.80;114.60;;;;;;;;5074340;28;8829;-78
2022/02/11 19:09:05;;;;;;;;;137.80;134.60;;;;;;;;5069128;28;9505;-80
2022/02/11 19:15:32;;;;;;;;;109.17;101.17;;;;;;;;4970726;28;8817;-83
2022/02/11 19:21:18;;;;;;;;;115.40;110.40;;;;;;;;4966849;28;8830;-84
2022/02/11 19:23:46;;;;;;;;;124.60;117.20;;;;;;;;5018445;28;8797;-84
2022/02/11 19:26:15;;;;;;;;;119.60;113.20;;;;;;;;5043344;28;8825;-82
2022/02/11 19:28:40;;;;;;;;;108.00;103.80;;;;;;;;5031440;28;8904;-80
2022/02/11 19:31:06;;;;;;;;;114.50;106.25;;;;;;;;5014292;28;8806;-82
2022/02/11 19:40:26;;;;;;;;;108.80;100.60;;;;;;;;4997233;28;11536;-81
2022/02/11 19:49:11;;;;;;;;;98.25;82.00;;;;;;;;4867558;29;8819;-84
2022/02/11 19:51:36;;;;;;;;;102.25;89.75;;;;;;;;4915378;29;8868;-83
2022/02/11 19:54:02;;;;;;;;;99.40;85.00;;;;;;;;5025141;28;8819;-83
2022/02/11 19:56:28;;;;;;;;;110.00;100.60;;;;;;;;5046507;28;8876;-84
2022/02/11 19:58:53;;;;;;;;;102.60;92.40;;;;;;;;5051507;28;8844;-84
2022/02/11 20:01:19;;;;;;;;;106.00;96.80;;;;;;;;5040733;28;8892;-84
2022/02/11 20:03:45;;;;;;;;;104.50;95.50;;;;;;;;5052286;28;8800;-84
2022/02/11 20:06:11;;;;;;;;;105.00;92.75;;;;;;;;5052092;28;8907;-83
2022/02/11 20:08:36;;;;;;;;;93.40;74.60;;;;;;;;5052950;28;12545;-83
2022/02/11 20:11:02;;;;;;;;;102.25;84.75;;;;;;;;5049427;28;8840;-83
2022/02/11 20:13:27;;;;;;;;;101.75;86.25;;;;;;;;5052758;28;8919;-83
2022/02/11 20:15:53;;;;;;;;;99.75;85.00;;;;;;;;5052263;28;8878;-83
2022/02/11 20:18:19;;;;;;;;;98.00;85.50;;;;;;;;5046508;28;8959;-83
2022/02/11 20:20:45;;;;;;;;;103.60;93.60;;;;;;;;5043585;28;8949;-83
2022/02/11 20:29:39;;;;;;;;;108.00;98.00;;;;;;;;4878890;28;103383887;-84
2022/02/11 20:39:25;;;;;;;;;;;;;;;;;;2;279082838;279082838;-83
2022/02/11 20:47:44;;;;;;;;;60.00;47.00;;;;;;;;2;234072445;234072445;-81
2022/02/11 20:56:45;;;;;;;;;87.00;87.00;;;;;;;;2;279083812;279083812;-79
2022/02/11 21:15:19;;;;;;;;;71.50;62.50;;;;;;;;2;279083652;279083652;-83
2022/02/11 21:24:02;;;;;;;;;74.00;66.50;;;;;;;;2;234070669;234070669;-81
2022/02/11 22:47:17;;;;;;;;;81.50;76.00;;;;;;;;2;279160493;279160493;-81
2022/02/11 22:56:30;;;;;;;;;;;;;;;;;;;;;
2022/02/11 23:43:11;;;;;;;;;77.00;71.50;;;;;;;;2;279088589;279088589;-78
2022/02/11 23:51:53;;;;;;;;;84.50;83.50;;;;;;;;2;234071302;234071302;-77
